createdAt,value
2022-12-05T00:01:37.527Z,101777.90
2022-12-05T00:04:11.606Z,101774.38
2022-12-05T00:06:43.286Z,101777.19
2022-12-05T00:09:17.152Z,101782.94
2022-12-05T00:11:46.837Z,101784.88
2022-12-05T00:14:15.047Z,101787.09
2022-12-05T00:16:49.646Z,101787.64
2022-12-05T00:19:20.868Z,101789.09
2022-12-05T00:21:48.915Z,101790.31
2022-12-05T00:24:17.940Z,101790.20
2022-12-05T00:26:45.184Z,101791.55
2022-12-05T00:29:13.597Z,101791.86
2022-12-05T00:31:44.346Z,101793.05
2022-12-05T00:34:15.178Z,101795.00
2022-12-05T00:36:43.420Z,101796.09
2022-12-05T00:39:18.187Z,101794.77
2022-12-05T00:41:46.471Z,101797.92
2022-12-05T00:44:15.458Z,101791.88
2022-12-05T00:46:44.854Z,101793.83
2022-12-05T00:49:13.758Z,101790.55
2022-12-05T00:51:45.167Z,101789.91
2022-12-05T00:54:15.636Z,101792.08
2022-12-05T00:56:45.212Z,101793.34
2022-12-05T00:59:20.059Z,101793.24
2022-12-05T01:01:53.679Z,101790.69
2022-12-05T01:04:24.605Z,101792.77
2022-12-05T01:07:00.061Z,101794.81
2022-12-05T01:09:27.926Z,101793.31
2022-12-05T01:11:55.782Z,101794.73
2022-12-05T01:14:26.490Z,101789.55
2022-12-05T01:16:56.910Z,101788.53
2022-12-05T01:19:28.220Z,101786.10
2022-12-05T01:21:57.076Z,101788.79
2022-12-05T01:24:27.677Z,101789.05
2022-12-05T01:26:56.205Z,101791.73
2022-12-05T01:29:25.099Z,101792.06
2022-12-05T01:31:52.927Z,101796.49
2022-12-05T01:34:22.863Z,101791.26
2022-12-05T01:36:50.526Z,101796.70
2022-12-05T01:39:18.173Z,101793.95
2022-12-05T01:41:50.008Z,101797.01
2022-12-05T01:44:21.300Z,101796.05
2022-12-05T01:46:53.253Z,101793.77
2022-12-05T01:49:36.379Z,101790.60
2022-12-05T01:52:19.773Z,101787.79
2022-12-05T01:54:52.330Z,101790.04
2022-12-05T01:57:22.932Z,101791.67
2022-12-05T01:59:57.136Z,101790.34
2022-12-05T02:02:25.457Z,101791.73
2022-12-05T02:05:10.004Z,101793.48
2022-12-05T02:07:42.013Z,101789.70
2022-12-05T02:10:17.047Z,101789.73
2022-12-05T02:12:46.380Z,101785.77
2022-12-05T02:16:12.467Z,101781.64
2022-12-05T02:18:53.183Z,101780.21
2022-12-05T02:21:59.246Z,101778.99
2022-12-05T02:24:54.357Z,101780.54
2022-12-05T02:27:52.753Z,101776.51
2022-12-05T02:30:25.278Z,101772.23
2022-12-05T02:33:18.690Z,101771.25
2022-12-05T02:36:12.193Z,101767.92
2022-12-05T02:38:51.446Z,101770.26
2022-12-05T02:41:50.644Z,101767.18
2022-12-05T02:44:35.904Z,101767.75
2022-12-05T02:47:07.806Z,101766.22
2022-12-05T02:49:39.386Z,101765.47
2022-12-05T02:52:16.421Z,101765.48
2022-12-05T02:55:08.481Z,101769.89
2022-12-05T02:57:38.823Z,101768.69
2022-12-05T03:00:08.564Z,101764.67
2022-12-05T03:02:36.692Z,101763.66
2022-12-05T03:05:43.573Z,101761.27
2022-12-05T03:08:20.988Z,101761.58
2022-12-05T03:10:54.428Z,101761.51
2022-12-05T03:13:34.502Z,101764.94
2022-12-05T03:16:12.388Z,101766.36
2022-12-05T03:18:49.324Z,101768.61
2022-12-05T03:21:34.500Z,101770.88
2022-12-05T03:24:10.474Z,101774.04
2022-12-05T03:26:55.846Z,101775.41
2022-12-05T03:29:34.312Z,101771.89
2022-12-05T03:32:16.354Z,101774.10
2022-12-05T03:34:59.797Z,101773.23
2022-12-05T03:37:46.483Z,101776.39
2022-12-05T03:40:25.338Z,101775.11
2022-12-05T03:43:25.912Z,101781.02
2022-12-05T03:46:15.766Z,101779.89
2022-12-05T03:49:18.272Z,101779.29
2022-12-05T03:52:10.937Z,101779.92
2022-12-05T03:54:57.400Z,101785.68
2022-12-05T03:57:46.299Z,101786.98
2022-12-05T04:00:22.993Z,101786.39
2022-12-05T04:03:05.791Z,101786.43
2022-12-05T04:05:38.342Z,101789.77
2022-12-05T04:08:15.869Z,101789.91
2022-12-05T04:10:51.793Z,101791.60
2022-12-05T04:17:04.842Z,101792.64
2022-12-05T04:20:09.178Z,101787.89
2022-12-05T04:22:41.060Z,101792.17
2022-12-05T04:25:32.115Z,101797.25
2022-12-05T04:28:23.394Z,101799.61
2022-12-05T04:31:09.480Z,101805.35
2022-12-05T04:33:55.449Z,101804.44
2022-12-05T04:36:42.344Z,101801.67
2022-12-05T04:39:25.864Z,101803.77
2022-12-05T04:42:12.447Z,101805.73
2022-12-05T04:44:51.371Z,101808.69
2022-12-05T04:47:24.975Z,101810.59
2022-12-05T04:49:55.350Z,101814.86
2022-12-05T04:52:27.687Z,101814.39
2022-12-05T04:55:22.285Z,101818.34
2022-12-05T04:58:08.949Z,101824.52
2022-12-05T05:01:07.854Z,101824.36
2022-12-05T05:03:52.886Z,101823.30
2022-12-05T05:06:23.124Z,101822.66
2022-12-05T05:08:59.663Z,101820.48
2022-12-05T05:11:33.214Z,101821.95
2022-12-05T05:14:03.996Z,101824.06
2022-12-05T05:16:53.199Z,101820.69
2022-12-05T05:19:25.213Z,101823.05
2022-12-05T05:21:54.457Z,101824.23
2022-12-05T05:24:24.278Z,101823.48
2022-12-05T05:26:57.267Z,101823.85
2022-12-05T05:29:26.171Z,101831.25
2022-12-05T05:31:57.110Z,101833.16
2022-12-05T05:34:28.827Z,101836.06
2022-12-05T05:36:58.837Z,101840.19
2022-12-05T05:39:28.770Z,101842.39
2022-12-05T05:41:56.371Z,101848.16
2022-12-05T05:44:28.743Z,101850.00
2022-12-05T05:46:59.622Z,101847.98
2022-12-05T05:49:29.469Z,101849.35
2022-12-05T05:52:04.909Z,101854.23
2022-12-05T05:54:32.456Z,101852.96
2022-12-05T05:56:59.608Z,101855.86
2022-12-05T05:59:30.448Z,101854.27
2022-12-05T06:02:01.686Z,101857.65
2022-12-05T06:04:31.818Z,101864.36
2022-12-05T06:06:58.973Z,101864.46
2022-12-05T06:09:29.201Z,101871.64
2022-12-05T06:12:05.756Z,101867.86
2022-12-05T06:14:36.288Z,101869.13
2022-12-05T06:17:05.681Z,101872.55
2022-12-05T06:19:35.319Z,101870.97
2022-12-05T06:22:06.431Z,101873.16
2022-12-05T06:24:37.595Z,101879.05
2022-12-05T06:27:07.202Z,101878.99
2022-12-05T06:29:39.084Z,101884.27
2022-12-05T06:32:07.096Z,101886.52
2022-12-05T06:34:39.406Z,101892.75
2022-12-05T06:37:10.004Z,101890.85
2022-12-05T06:39:40.063Z,101894.64
2022-12-05T06:42:10.178Z,101896.32
2022-12-05T06:44:40.899Z,101897.93
2022-12-05T06:47:11.088Z,101898.23
2022-12-05T06:49:39.990Z,101899.81
2022-12-05T06:52:08.652Z,101905.05
2022-12-05T06:54:41.741Z,101901.52
2022-12-05T06:57:13.276Z,101908.30
2022-12-05T06:59:41.655Z,101913.08
2022-12-05T07:02:15.280Z,101914.50
2022-12-05T07:04:44.030Z,101917.90
2022-12-05T07:07:11.633Z,101919.00
2022-12-05T07:09:54.289Z,101922.16
2022-12-05T07:12:22.880Z,101921.31
2022-12-05T07:14:54.826Z,101924.11
2022-12-05T07:17:23.210Z,101922.70
2022-12-05T07:19:51.481Z,101923.73
2022-12-05T07:22:22.055Z,101928.73
2022-12-05T07:24:55.030Z,101929.29
2022-12-05T07:27:27.597Z,101931.98
2022-12-05T07:29:58.366Z,101930.98
2022-12-05T07:32:28.327Z,101932.45
2022-12-05T07:34:57.523Z,101935.88
2022-12-05T07:37:30.603Z,101937.73
2022-12-05T07:39:58.160Z,101938.30
2022-12-05T07:42:26.243Z,101948.00
2022-12-05T07:44:55.727Z,101949.80
2022-12-05T07:47:25.862Z,101952.90
2022-12-05T07:49:55.055Z,101952.88
2022-12-05T07:52:23.143Z,101955.69
2022-12-05T07:54:52.652Z,101960.54
2022-12-05T07:57:19.911Z,101962.72
2022-12-05T07:59:50.074Z,101969.02
2022-12-05T08:02:18.927Z,101972.23
2022-12-05T08:04:50.508Z,101972.77
2022-12-05T08:07:20.067Z,101973.95
2022-12-05T08:09:48.166Z,101975.31
2022-12-05T08:12:16.744Z,101977.08
2022-12-05T08:14:44.015Z,101975.94
2022-12-05T08:17:11.426Z,101980.28
2022-12-05T08:19:39.272Z,101979.81
2022-12-05T08:22:07.822Z,101983.31
2022-12-05T08:24:36.084Z,101988.38
2022-12-05T08:27:06.416Z,101988.91
2022-12-05T08:29:38.151Z,101990.24
2022-12-05T08:32:08.954Z,101987.60
2022-12-05T08:34:39.542Z,101989.57
2022-12-05T08:37:10.592Z,101989.48
2022-12-05T08:39:41.672Z,101989.70
2022-12-05T08:42:11.569Z,101988.17
2022-12-05T08:44:40.107Z,101984.26
2022-12-05T08:47:09.170Z,101983.05
2022-12-05T08:49:40.144Z,101982.94
2022-12-05T08:52:09.838Z,101984.64
2022-12-05T08:54:38.305Z,101985.55
2022-12-05T08:57:08.848Z,101988.70
2022-12-05T08:59:36.683Z,101991.89
2022-12-05T09:02:04.607Z,101996.44
2022-12-05T09:04:35.832Z,101996.58
2022-12-05T09:07:05.665Z,101995.41
2022-12-05T09:09:33.878Z,101999.08
2022-12-05T09:12:03.137Z,102002.61
2022-12-05T09:14:33.267Z,102000.13
2022-12-05T09:17:06.708Z,101998.66
2022-12-05T09:19:37.108Z,102000.45
2022-12-05T09:22:05.591Z,102000.04
2022-12-05T09:24:34.724Z,102002.52
2022-12-05T09:27:03.654Z,102000.88
2022-12-05T09:29:33.515Z,101997.49
2022-12-05T09:32:04.501Z,101992.86
2022-12-05T09:34:32.072Z,101996.72
2022-12-05T09:37:23.309Z,101997.29
2022-12-05T09:39:49.910Z,101999.68
2022-12-05T09:42:23.811Z,101999.60
2022-12-05T09:45:06.531Z,101994.38
2022-12-05T09:47:55.536Z,101994.54
2022-12-05T09:50:42.031Z,101988.94
2022-12-05T09:53:25.672Z,101985.17
2022-12-05T09:59:21.070Z,101983.27
2022-12-05T10:02:27.713Z,101984.67
2022-12-05T10:05:17.822Z,101982.13
2022-12-05T10:08:01.572Z,101979.95
2022-12-05T10:10:35.421Z,101970.29
2022-12-05T10:13:14.798Z,101966.98
2022-12-05T10:15:54.342Z,101967.29
2022-12-05T10:18:48.030Z,101960.00
2022-12-05T10:21:26.178Z,101957.09
2022-12-05T10:24:07.273Z,101954.08
2022-12-05T10:26:45.383Z,101947.89
2022-12-05T10:29:35.416Z,101942.89
2022-12-05T10:32:37.090Z,101936.34
2022-12-05T10:35:23.912Z,101941.70
2022-12-05T10:38:13.383Z,101941.60
2022-12-05T10:40:49.034Z,101942.30
2022-12-05T10:43:31.043Z,101940.32
2022-12-05T10:45:59.519Z,101933.36
2022-12-05T10:48:28.812Z,101927.06
2022-12-05T10:50:59.251Z,101925.36
2022-12-05T10:53:33.094Z,101923.41
2022-12-05T10:56:30.213Z,101924.70
2022-12-05T10:58:56.929Z,101920.26
2022-12-05T11:01:30.920Z,101920.26
2022-12-05T11:04:13.478Z,101919.04
2022-12-05T11:07:01.895Z,101920.95
2022-12-05T11:09:41.443Z,101918.10
2022-12-05T11:12:27.858Z,101914.48
2022-12-05T11:15:04.504Z,101913.88
2022-12-05T11:17:36.957Z,101910.12
2022-12-05T11:20:24.705Z,101910.27
2022-12-05T11:22:57.190Z,101908.82
2022-12-05T11:25:37.116Z,101903.70
2022-12-05T11:28:16.675Z,101902.67
2022-12-05T11:31:10.427Z,101899.71
2022-12-05T11:33:39.546Z,101899.51
2022-12-05T11:36:23.961Z,101898.08
2022-12-05T11:38:52.471Z,101890.10
2022-12-05T11:41:53.516Z,101892.66
2022-12-05T11:45:13.595Z,101888.05
2022-12-05T11:48:02.140Z,101885.58
2022-12-05T11:50:41.917Z,101885.25
2022-12-05T11:53:45.117Z,101884.93
2022-12-05T11:56:27.175Z,101883.09
2022-12-05T11:59:04.827Z,101883.23
2022-12-05T12:01:42.876Z,101876.25
2022-12-05T12:04:45.581Z,101874.46
2022-12-05T12:07:24.006Z,101872.75
2022-12-05T12:10:19.095Z,101869.46
2022-12-05T12:13:01.005Z,101872.89
2022-12-05T12:15:40.651Z,101869.60
2022-12-05T12:18:44.541Z,101867.16
2022-12-05T12:21:38.389Z,101862.17
2022-12-05T12:24:42.409Z,101856.36
2022-12-05T12:27:33.579Z,101850.17
2022-12-05T12:30:08.958Z,101846.64
2022-12-05T12:32:55.049Z,101846.06
2022-12-05T12:35:53.195Z,101841.66
2022-12-05T12:38:57.651Z,101838.39
2022-12-05T12:41:47.114Z,101838.55
2022-12-05T12:44:37.701Z,101829.73
2022-12-05T12:47:31.587Z,101827.18
2022-12-05T12:50:15.505Z,101828.08
2022-12-05T12:52:56.183Z,101821.85
2022-12-05T12:55:47.793Z,101824.79
2022-12-05T12:58:54.173Z,101826.16
2022-12-05T13:01:43.155Z,101823.08
2022-12-05T13:04:16.399Z,101823.73
2022-12-05T13:06:47.770Z,101821.18
2022-12-05T13:09:26.807Z,101823.44
2022-12-05T13:11:56.711Z,101820.12
2022-12-05T13:14:28.140Z,101822.87
2022-12-05T13:17:00.733Z,101819.44
2022-12-05T13:19:44.790Z,101816.84
2022-12-05T13:22:15.826Z,101815.89
2022-12-05T13:24:44.033Z,101819.08
2022-12-05T13:27:20.911Z,101814.48
2022-12-05T13:29:51.526Z,101813.33
2022-12-05T13:32:36.902Z,101813.48
2022-12-05T13:35:07.334Z,101806.50
2022-12-05T13:37:57.624Z,101810.20
2022-12-05T13:41:01.612Z,101808.57
2022-12-05T13:43:30.772Z,101804.48
2022-12-05T13:46:29.056Z,101802.64
2022-12-05T13:49:17.544Z,101795.25
2022-12-05T13:51:48.075Z,101794.14
2022-12-05T13:54:20.596Z,101791.95
2022-12-05T13:57:03.783Z,101794.56
2022-12-05T14:00:14.588Z,101795.69
2022-12-05T14:02:45.518Z,101795.92
2022-12-05T14:05:18.389Z,101794.73
2022-12-05T14:07:49.519Z,101791.80
2022-12-05T14:10:34.782Z,101790.86
2022-12-05T14:13:20.421Z,101794.65
2022-12-05T14:15:51.701Z,101795.77
2022-12-05T14:18:25.881Z,101795.08
2022-12-05T14:21:02.719Z,101797.23
2022-12-05T14:24:07.029Z,101802.94
2022-12-05T14:27:11.819Z,101802.24
2022-12-05T14:30:04.167Z,101801.19
2022-12-05T14:32:43.449Z,101799.11
2022-12-05T14:35:16.587Z,101797.16
2022-12-05T14:37:54.188Z,101795.79
2022-12-05T14:40:40.002Z,101796.84
2022-12-05T14:43:32.697Z,101798.20
2022-12-05T14:46:07.027Z,101798.46
2022-12-05T14:48:47.636Z,101801.48
2022-12-05T14:51:32.947Z,101796.05
2022-12-05T14:54:29.142Z,101791.13
2022-12-05T14:57:26.765Z,101789.49
2022-12-05T14:59:56.585Z,101793.42
2022-12-05T15:02:39.334Z,101796.45
2022-12-05T15:05:24.907Z,101792.94
2022-12-05T15:07:59.598Z,101795.42
2022-12-05T15:10:37.768Z,101795.52
2022-12-05T15:13:19.137Z,101794.30
2022-12-05T15:16:11.935Z,101792.09
2022-12-05T15:18:47.840Z,101795.52
2022-12-05T15:21:29.704Z,101794.65
2022-12-05T15:24:02.092Z,101792.08
2022-12-05T15:26:49.437Z,101792.17
2022-12-05T15:29:23.638Z,101795.99
2022-12-05T15:31:55.812Z,101795.79
2022-12-05T15:34:48.857Z,101795.95
2022-12-05T15:37:26.015Z,101794.77
2022-12-05T15:40:00.796Z,101794.17
2022-12-05T15:42:50.806Z,101790.31
2022-12-05T15:45:30.192Z,101787.67
2022-12-05T15:48:25.224Z,101786.61
2022-12-05T15:54:11.600Z,101782.61
2022-12-05T15:56:52.104Z,101785.79
2022-12-05T15:59:35.938Z,101787.75
2022-12-05T16:02:35.480Z,101792.83
2022-12-05T16:05:06.905Z,101796.15
2022-12-05T16:07:42.851Z,101803.78
2022-12-05T16:10:29.133Z,101806.80
2022-12-05T16:13:12.175Z,101808.48
2022-12-05T16:15:53.246Z,101813.31
2022-12-05T16:18:29.432Z,101808.55
2022-12-05T16:21:00.429Z,101808.30
2022-12-05T16:23:38.222Z,101800.04
2022-12-05T16:26:20.974Z,101801.72
2022-12-05T16:29:08.848Z,101800.77
2022-12-05T16:31:45.634Z,101802.66
2022-12-05T16:34:23.246Z,101809.90
2022-12-05T16:36:53.652Z,101815.67
2022-12-05T16:39:24.026Z,101815.23
2022-12-05T16:41:57.667Z,101818.29
2022-12-05T16:44:28.848Z,101816.36
2022-12-05T16:47:04.208Z,101818.73
2022-12-05T16:49:35.345Z,101820.95
2022-12-05T16:52:15.468Z,101818.27
2022-12-05T16:54:54.787Z,101816.77
2022-12-05T16:57:27.827Z,101817.40
2022-12-05T17:00:13.231Z,101818.63
2022-12-05T17:02:48.214Z,101821.59
2022-12-05T17:05:17.407Z,101821.48
2022-12-05T17:07:48.597Z,101823.27
2022-12-05T17:10:16.108Z,101821.52
2022-12-05T17:12:47.520Z,101821.45
2022-12-05T17:15:19.942Z,101819.61
2022-12-05T17:17:48.708Z,101822.17
2022-12-05T17:20:18.239Z,101817.34
2022-12-05T17:22:46.721Z,101821.61
2022-12-05T17:25:24.851Z,101816.31
2022-12-05T17:27:52.293Z,101811.05
2022-12-05T17:30:20.669Z,101811.55
2022-12-05T17:32:48.746Z,101816.27
2022-12-05T17:35:27.902Z,101816.68
2022-12-05T17:37:55.433Z,101819.48
2022-12-05T17:40:24.874Z,101813.91
2022-12-05T17:42:53.146Z,101814.02
2022-12-05T17:45:21.390Z,101813.97
2022-12-05T17:47:49.055Z,101820.10
2022-12-05T17:50:21.739Z,101822.30
2022-12-05T17:52:51.755Z,101827.16
2022-12-05T17:55:29.275Z,101828.20
2022-12-05T17:57:57.177Z,101830.33
2022-12-05T18:00:28.877Z,101834.52
2022-12-05T18:02:57.104Z,101831.35
2022-12-05T18:05:25.133Z,101832.25
2022-12-05T18:07:52.795Z,101830.13
2022-12-05T18:10:25.289Z,101827.05
2022-12-05T18:12:54.970Z,101828.45
2022-12-05T18:15:23.255Z,101826.50
2022-12-05T18:17:50.605Z,101825.81
2022-12-05T18:20:17.899Z,101823.48
2022-12-05T18:22:45.900Z,101826.91
2022-12-05T18:25:18.059Z,101827.88
2022-12-05T18:30:57.187Z,101828.38
2022-12-05T18:33:27.120Z,101832.88
2022-12-05T18:35:54.144Z,101835.34
2022-12-05T18:39:03.871Z,101836.36
2022-12-05T18:44:30.544Z,101833.36
2022-12-05T18:46:59.227Z,101835.66
2022-12-05T18:49:26.483Z,101835.52
2022-12-05T18:51:54.310Z,101830.92
2022-12-05T18:54:22.867Z,101830.59
2022-12-05T18:56:52.603Z,101829.55
2022-12-05T18:59:23.867Z,101833.27
2022-12-05T19:01:53.549Z,101828.52
2022-12-05T19:04:21.965Z,101828.01
2022-12-05T19:06:52.619Z,101831.14
2022-12-05T19:09:22.857Z,101830.68
2022-12-05T19:11:55.872Z,101834.30
2022-12-05T19:14:24.407Z,101838.27
2022-12-05T19:16:59.996Z,101844.20
2022-12-05T19:19:28.357Z,101842.73
2022-12-05T19:21:55.735Z,101838.45
2022-12-05T19:24:22.962Z,101840.17
2022-12-05T19:26:53.670Z,101837.94
2022-12-05T19:29:20.877Z,101835.76
2022-12-05T19:31:48.065Z,101829.90
2022-12-05T19:34:16.227Z,101825.76
2022-12-05T19:36:45.777Z,101832.08
2022-12-05T19:39:20.604Z,101826.83
2022-12-05T19:41:48.341Z,101830.44
2022-12-05T19:44:16.092Z,101833.56
2022-12-05T19:46:44.056Z,101834.95
2022-12-05T19:49:14.302Z,101833.30
2022-12-05T19:51:41.658Z,101828.85
2022-12-05T19:54:11.076Z,101828.80
2022-12-05T19:56:40.778Z,101825.75
2022-12-05T19:59:08.032Z,101823.91
2022-12-05T20:01:37.767Z,101822.94
2022-12-05T20:04:14.281Z,101823.23
2022-12-05T20:06:51.803Z,101834.98
2022-12-05T20:09:21.002Z,101832.91
2022-12-05T20:11:55.084Z,101834.66
2022-12-05T20:14:25.059Z,101834.34
2022-12-05T20:16:53.429Z,101835.91
2022-12-05T20:19:21.927Z,101836.41
2022-12-05T20:21:48.953Z,101840.73
2022-12-05T20:24:15.990Z,101841.41
2022-12-05T20:26:44.817Z,101840.17
2022-12-05T20:29:12.316Z,101839.91
2022-12-05T20:31:41.609Z,101837.92
2022-12-05T20:41:19.255Z,101831.85
2022-12-05T20:43:48.379Z,101833.13
2022-12-05T20:46:22.210Z,101829.16
2022-12-05T20:48:51.574Z,101833.65
2022-12-05T20:51:21.770Z,101825.23
2022-12-05T20:53:51.675Z,101825.85
2022-12-05T20:56:25.474Z,101828.02
2022-12-05T20:58:59.047Z,101830.91
2022-12-05T21:01:27.504Z,101834.09
2022-12-05T21:04:05.461Z,101832.23
2022-12-05T21:06:39.034Z,101829.42
2022-12-05T21:09:27.085Z,101831.83
2022-12-05T21:11:59.296Z,101833.15
2022-12-05T21:14:27.633Z,101833.74
2022-12-05T21:16:58.304Z,101834.48
2022-12-05T21:19:41.955Z,101834.80
2022-12-05T21:22:10.109Z,101835.01
2022-12-05T21:24:41.857Z,101837.98
2022-12-05T21:27:08.977Z,101838.02
2022-12-05T21:29:37.258Z,101842.12
2022-12-05T21:32:04.471Z,101837.52
2022-12-05T21:34:31.721Z,101839.28
2022-12-05T21:37:01.057Z,101833.36
2022-12-05T21:39:28.631Z,101835.77
2022-12-05T21:41:59.418Z,101834.61
2022-12-05T21:44:26.601Z,101831.40
2022-12-05T21:46:53.725Z,101828.34
2022-12-05T21:49:20.808Z,101826.23
2022-12-05T21:51:48.022Z,101823.33
2022-12-05T21:54:15.146Z,101819.27
2022-12-05T21:56:42.362Z,101824.18
2022-12-05T21:59:10.380Z,101825.40
2022-12-05T22:01:37.547Z,101820.12
2022-12-05T22:04:04.703Z,101818.47
2022-12-05T22:06:34.107Z,101813.52
2022-12-05T22:09:01.896Z,101810.45
2022-12-05T22:11:28.948Z,101806.38
2022-12-05T22:13:57.083Z,101798.86
2022-12-05T22:16:30.687Z,101794.33
2022-12-05T22:19:00.160Z,101789.83
2022-12-05T22:21:28.076Z,101788.45
2022-12-05T22:23:55.060Z,101793.16
2022-12-05T22:26:24.786Z,101788.81
2022-12-05T22:28:53.827Z,101788.73
2022-12-05T22:31:22.664Z,101786.98
2022-12-05T22:33:55.395Z,101790.00
2022-12-05T22:36:24.530Z,101787.26
2022-12-05T22:38:52.258Z,101785.37
2022-12-05T22:41:22.362Z,101783.21
2022-12-05T22:43:53.641Z,101781.50
2022-12-05T22:46:21.167Z,101777.64
2022-12-05T22:48:49.781Z,101777.76
2022-12-05T22:51:19.407Z,101772.95
2022-12-05T22:53:49.821Z,101769.09
2022-12-05T22:56:20.214Z,101768.30
2022-12-05T22:58:47.962Z,101768.41
2022-12-05T23:01:19.486Z,101763.60
2022-12-05T23:03:51.406Z,101762.13
2022-12-05T23:06:21.666Z,101758.26
2022-12-05T23:08:50.486Z,101755.25
2022-12-05T23:11:21.517Z,101751.22
2022-12-05T23:13:54.772Z,101749.27
2022-12-05T23:16:27.352Z,101747.27
2022-12-05T23:18:58.967Z,101744.83
2022-12-05T23:21:38.457Z,101744.52
2022-12-05T23:24:12.747Z,101739.53
2022-12-05T23:26:44.146Z,101739.27
2022-12-05T23:29:15.568Z,101737.45
2022-12-05T23:31:44.777Z,101736.63
2022-12-05T23:34:16.013Z,101731.30
2022-12-05T23:36:46.647Z,101729.02
2022-12-05T23:39:14.586Z,101725.94
2022-12-05T23:41:44.585Z,101720.15
2022-12-05T23:44:12.679Z,101716.12
2022-12-05T23:46:43.796Z,101708.27
2022-12-05T23:49:11.690Z,101703.40
2022-12-05T23:51:40.506Z,101703.83
2022-12-05T23:54:13.290Z,101702.04
2022-12-05T23:56:41.621Z,101699.27
2022-12-05T23:59:09.961Z,101698.74
